createdAt,value
2019-04-26T00:00:33.974Z,79.50
2019-04-26T00:03:05.307Z,80.70
2019-04-26T00:05:39.065Z,81.20
2019-04-26T00:08:06.401Z,81.50
2019-04-26T00:10:38.707Z,81.40
2019-04-26T00:13:26.416Z,81.40
2019-04-26T00:16:06.922Z,81.40
2019-04-26T00:18:39.423Z,81.70
2019-04-26T00:21:08.015Z,81.30
2019-04-26T00:23:37.779Z,80.90
2019-04-26T00:26:07.593Z,80.50
2019-04-26T00:28:37.314Z,80.40
2019-04-26T00:31:07.048Z,80.20
2019-04-26T00:33:36.768Z,81.00
2019-04-26T00:36:06.501Z,81.70
2019-04-26T00:38:36.215Z,81.40
2019-04-26T00:41:06.780Z,81.50
2019-04-26T00:43:36.579Z,81.40
2019-04-26T00:46:07.130Z,81.40
2019-04-26T00:48:38.498Z,81.60
2019-04-26T00:51:09.373Z,81.60
2019-04-26T00:53:40.850Z,81.90
2019-04-26T00:56:11.714Z,82.20
2019-04-26T00:58:41.436Z,82.50
2019-04-26T01:01:11.782Z,82.70
2019-04-26T01:03:41.803Z,82.30
2019-04-26T01:06:13.129Z,82.30
2019-04-26T01:08:42.834Z,82.20
2019-04-26T01:11:12.550Z,82.40
2019-04-26T01:13:42.279Z,82.10
2019-04-26T01:16:12.005Z,82.50
2019-04-26T01:18:43.379Z,82.70
2019-04-26T01:21:14.981Z,82.30
2019-04-26T01:23:47.418Z,82.50
2019-04-26T01:26:23.211Z,83.10
2019-04-26T01:28:56.063Z,83.10
2019-04-26T01:31:28.185Z,84.20
2019-04-26T01:33:57.903Z,84.50
2019-04-26T01:36:29.387Z,84.30
2019-04-26T01:39:02.096Z,83.10
2019-04-26T01:41:37.544Z,82.00
2019-04-26T01:44:21.776Z,83.00
2019-04-26T01:46:53.886Z,82.80
2019-04-26T01:49:24.214Z,82.80
2019-04-26T01:51:56.886Z,82.80
2019-04-26T01:54:29.906Z,83.40
2019-04-26T01:57:04.827Z,83.30
2019-04-26T01:59:38.562Z,82.70
2019-04-26T02:02:09.850Z,83.80
2019-04-26T02:04:45.064Z,84.00
2019-04-26T02:07:17.543Z,85.00
2019-04-26T02:09:47.290Z,84.50
2019-04-26T02:12:17.014Z,84.40
2019-04-26T02:14:46.730Z,86.00
2019-04-26T02:17:16.765Z,87.50
2019-04-26T02:19:46.474Z,87.80
2019-04-26T02:22:26.596Z,87.10
2019-04-26T02:24:57.315Z,86.30
2019-04-26T02:27:28.673Z,87.70
2019-04-26T02:29:59.822Z,88.20
2019-04-26T02:32:31.383Z,88.10
2019-04-26T02:35:02.870Z,88.10
2019-04-26T02:37:34.561Z,88.20
2019-04-26T02:40:07.035Z,88.30
2019-04-26T02:42:40.449Z,87.90
2019-04-26T02:45:20.588Z,87.80
2019-04-26T02:47:55.105Z,85.90
2019-04-26T02:50:29.063Z,85.30
2019-04-26T02:53:04.771Z,86.30
2019-04-26T02:56:01.615Z,86.00
2019-04-26T02:58:43.040Z,86.00
2019-04-26T03:01:12.854Z,85.00
2019-04-26T03:03:42.579Z,84.90
2019-04-26T03:06:12.299Z,85.20
2019-04-26T03:08:42.730Z,85.30
2019-04-26T03:11:17.565Z,86.00
2019-04-26T03:13:56.574Z,88.50
2019-04-26T03:16:32.663Z,90.00
2019-04-26T03:19:06.595Z,89.20
2019-04-26T03:21:45.094Z,88.90
2019-04-26T03:24:31.078Z,90.00
2019-04-26T03:27:10.255Z,90.20
2019-04-26T03:29:43.750Z,90.00
2019-04-26T03:32:25.528Z,89.90
2019-04-26T03:35:24.177Z,89.70
2019-04-26T03:37:58.457Z,89.50
2019-04-26T03:40:37.917Z,89.10
2019-04-26T03:43:25.283Z,89.10
2019-04-26T03:46:20.272Z,88.60
2019-04-26T03:49:11.191Z,88.40
2019-04-26T03:52:00.270Z,88.10
2019-04-26T03:54:34.091Z,88.00
2019-04-26T03:57:36.331Z,87.30
2019-04-26T04:00:25.925Z,88.00
2019-04-26T04:03:09.228Z,88.20
2019-04-26T04:05:47.730Z,87.70
2019-04-26T04:08:20.578Z,86.50
2019-04-26T04:10:53.288Z,87.40
2019-04-26T04:13:54.535Z,88.10
2019-04-26T04:16:48.905Z,88.60
2019-04-26T04:19:35.314Z,88.80
2019-04-26T04:22:17.048Z,88.90
2019-04-26T04:24:51.311Z,88.50
2019-04-26T04:27:36.262Z,87.60
2019-04-26T04:30:08.882Z,87.40
2019-04-26T04:32:52.088Z,86.70
2019-04-26T04:35:24.217Z,86.10
2019-04-26T04:38:09.168Z,86.10
2019-04-26T04:40:44.834Z,85.40
2019-04-26T04:43:26.088Z,85.20
2019-04-26T04:46:12.468Z,84.40
2019-04-26T04:49:04.919Z,84.70
2019-04-26T04:51:49.888Z,83.40
2019-04-26T04:54:41.529Z,83.20
2019-04-26T04:57:34.995Z,82.60
2019-04-26T05:00:10.850Z,82.10
2019-04-26T05:02:56.915Z,81.80
2019-04-26T05:05:43.608Z,82.30
2019-04-26T05:08:24.912Z,82.00
2019-04-26T05:11:13.948Z,80.90
2019-04-26T05:13:55.143Z,81.10
2019-04-26T05:16:41.258Z,79.70
2019-04-26T05:19:26.465Z,79.30
2019-04-26T05:22:10.935Z,79.90
2019-04-26T05:25:03.005Z,79.50
2019-04-26T05:28:01.599Z,79.60
2019-04-26T05:31:05.739Z,79.20
2019-04-26T05:33:47.764Z,79.10
2019-04-26T05:36:29.820Z,77.50
2019-04-26T05:39:07.715Z,77.10
2019-04-26T05:42:04.511Z,77.50
2019-04-26T05:45:07.272Z,75.30
2019-04-26T05:48:03.146Z,74.60
2019-04-26T05:50:35.262Z,74.10
2019-04-26T05:53:18.287Z,73.80
2019-04-26T05:56:19.563Z,72.30
2019-04-26T05:59:00.271Z,72.20
2019-04-26T06:01:47.255Z,69.70
2019-04-26T06:04:48.812Z,67.60
2019-04-26T06:07:37.277Z,65.80
2019-04-26T06:10:35.889Z,64.60
2019-04-26T06:13:21.306Z,63.40
2019-04-26T06:15:58.215Z,63.70
2019-04-26T06:18:53.159Z,62.30
2019-04-26T06:21:28.638Z,62.50
2019-04-26T06:24:16.252Z,60.90
2019-04-26T06:27:09.282Z,59.90
2019-04-26T06:29:52.549Z,59.90
2019-04-26T06:33:02.810Z,60.70
2019-04-26T06:35:28.374Z,59.10
2019-04-26T06:38:05.487Z,59.50
2019-04-26T06:40:46.872Z,58.90
2019-04-26T06:43:26.400Z,59.10
2019-04-26T06:46:11.470Z,57.50
2019-04-26T06:49:01.037Z,56.10
2019-04-26T06:51:37.979Z,54.70
2019-04-26T06:54:28.886Z,54.10
2019-04-26T06:57:30.299Z,53.00
2019-04-26T07:00:06.639Z,52.20
2019-04-26T07:02:57.428Z,52.30
2019-04-26T07:05:30.158Z,52.60
2019-04-26T07:08:37.946Z,51.70
2019-04-26T07:11:18.979Z,51.00
2019-04-26T07:13:55.767Z,50.70
2019-04-26T07:16:37.222Z,51.10
2019-04-26T07:19:48.038Z,50.40
2019-04-26T07:22:37.474Z,50.10
2019-04-26T07:25:44.930Z,50.10
2019-04-26T07:28:51.479Z,50.00
2019-04-26T07:31:30.167Z,50.00
2019-04-26T07:34:23.498Z,50.10
2019-04-26T07:37:16.814Z,49.10
2019-04-26T07:40:12.107Z,49.60
2019-04-26T07:42:58.304Z,49.10
2019-04-26T07:45:59.889Z,48.80
2019-04-26T07:48:41.149Z,48.20
2019-04-26T07:51:16.667Z,48.10
2019-04-26T07:53:55.261Z,47.60
2019-04-26T07:56:30.795Z,47.70
2019-04-26T07:59:36.846Z,47.60
2019-04-26T08:02:33.681Z,47.50
2019-04-26T08:05:24.595Z,47.40
2019-04-26T08:07:57.197Z,47.00
2019-04-26T08:10:30.157Z,46.10
2019-04-26T08:13:06.090Z,46.60
2019-04-26T08:15:49.558Z,47.50
2019-04-26T08:18:26.691Z,47.60
2019-04-26T08:21:13.650Z,47.30
2019-04-26T08:23:45.654Z,47.30
2019-04-26T08:26:18.350Z,47.30
2019-04-26T08:28:50.661Z,46.00
2019-04-26T08:31:25.591Z,46.40
2019-04-26T08:33:59.574Z,45.90
2019-04-26T08:36:33.817Z,46.00
2019-04-26T08:39:07.011Z,45.00
2019-04-26T08:41:39.087Z,46.10
2019-04-26T08:44:17.237Z,45.30
2019-04-26T08:46:50.694Z,45.60
2019-04-26T08:49:28.401Z,45.20
2019-04-26T08:52:00.145Z,44.40
2019-04-26T08:54:33.250Z,44.70
2019-04-26T08:57:06.286Z,45.20
2019-04-26T08:59:41.912Z,45.10
2019-04-26T09:02:24.678Z,44.30
2019-04-26T09:05:17.147Z,44.40
2019-04-26T09:07:53.574Z,44.60
2019-04-26T09:10:24.607Z,43.70
2019-04-26T09:12:56.720Z,44.50
2019-04-26T09:15:45.823Z,44.40
2019-04-26T09:18:18.630Z,44.90
2019-04-26T09:20:49.883Z,44.30
2019-04-26T09:23:40.364Z,44.30
2019-04-26T09:26:12.489Z,44.80
2019-04-26T09:28:43.295Z,44.30
2019-04-26T09:31:19.738Z,44.20
2019-04-26T09:33:51.334Z,44.40
2019-04-26T09:36:21.053Z,44.20
2019-04-26T09:38:53.499Z,44.90
2019-04-26T09:41:26.483Z,44.00
2019-04-26T09:44:00.347Z,43.00
2019-04-26T09:46:52.130Z,43.60
2019-04-26T09:49:30.090Z,43.10
2019-04-26T09:52:00.995Z,43.60
2019-04-26T09:54:31.867Z,43.30
2019-04-26T09:57:02.674Z,44.00
2019-04-26T09:59:32.351Z,43.60
2019-04-26T10:02:02.006Z,43.80
2019-04-26T10:04:31.642Z,42.70
2019-04-26T10:07:03.310Z,43.10
2019-04-26T10:09:33.837Z,42.70
2019-04-26T10:12:08.066Z,42.70
2019-04-26T10:14:39.396Z,42.70
2019-04-26T10:17:15.755Z,42.70
2019-04-26T10:19:46.663Z,42.20
2019-04-26T10:22:16.370Z,41.70
2019-04-26T10:24:46.150Z,41.90
2019-04-26T10:27:15.857Z,41.50
2019-04-26T10:29:46.630Z,41.70
2019-04-26T10:32:16.355Z,40.60
2019-04-26T10:34:47.392Z,40.70
2019-04-26T10:37:17.443Z,40.90
2019-04-26T10:39:47.208Z,41.50
2019-04-26T10:42:17.013Z,39.20
2019-04-26T10:44:46.730Z,40.20
2019-04-26T10:47:19.194Z,40.40
2019-04-26T10:49:48.873Z,40.50
2019-04-26T10:52:35.574Z,39.80
2019-04-26T10:55:21.756Z,39.60
2019-04-26T10:57:56.575Z,40.30
2019-04-26T11:00:34.133Z,39.70
2019-04-26T11:03:04.557Z,40.00
2019-04-26T11:05:35.235Z,40.70
2019-04-26T11:08:05.646Z,39.90
2019-04-26T11:10:47.935Z,40.00
2019-04-26T11:13:07.946Z,39.40
2019-04-26T11:15:37.690Z,39.70
2019-04-26T11:18:07.399Z,39.70
2019-04-26T11:20:37.153Z,40.00
2019-04-26T11:23:08.169Z,39.00
2019-04-26T11:25:38.250Z,38.80
2019-04-26T11:28:07.953Z,37.50
2019-04-26T11:30:37.590Z,37.70
2019-04-26T11:33:10.882Z,38.10
2019-04-26T11:35:38.698Z,38.10
2019-04-26T11:38:08.410Z,37.30
2019-04-26T11:40:38.168Z,37.50
2019-04-26T11:43:07.882Z,36.90
2019-04-26T11:45:37.599Z,36.40
2019-04-26T11:48:07.318Z,35.90
2019-04-26T11:50:37.836Z,36.30
2019-04-26T11:53:10.258Z,36.30
2019-04-26T11:55:38.926Z,34.70
2019-04-26T11:58:09.678Z,33.90
2019-04-26T12:00:53.291Z,34.00
2019-04-26T12:03:24.919Z,35.20
2019-04-26T12:06:01.898Z,35.10
2019-04-26T12:08:37.030Z,34.90
2019-04-26T12:11:17.824Z,35.20
2019-04-26T12:13:38.210Z,35.50
2019-04-26T12:16:09.832Z,35.40
2019-04-26T12:18:40.183Z,35.30
2019-04-26T12:21:11.092Z,34.60
2019-04-26T12:23:40.850Z,33.90
2019-04-26T12:26:10.579Z,33.60
2019-04-26T12:28:41.375Z,33.40
2019-04-26T12:31:11.150Z,33.90
2019-04-26T12:33:43.747Z,33.50
2019-04-26T12:36:13.253Z,33.30
2019-04-26T12:38:44.036Z,33.80
2019-04-26T12:41:17.267Z,33.70
2019-04-26T12:43:45.134Z,33.30
2019-04-26T12:46:16.414Z,33.40
2019-04-26T12:48:49.657Z,34.40
2019-04-26T12:51:19.743Z,34.80
2019-04-26T12:53:49.666Z,34.90
2019-04-26T12:56:19.427Z,34.10
2019-04-26T12:58:50.000Z,34.10
2019-04-26T13:01:20.510Z,32.70
2019-04-26T13:04:08.039Z,32.00
2019-04-26T13:06:39.584Z,32.10
2019-04-26T13:09:12.234Z,30.50
2019-04-26T13:11:57.806Z,29.60
2019-04-26T13:14:32.038Z,29.50
2019-04-26T13:17:06.230Z,29.30
2019-04-26T13:19:35.947Z,29.60
2019-04-26T13:22:08.556Z,29.80
2019-04-26T13:24:39.849Z,30.50
2019-04-26T13:27:10.618Z,31.20
2019-04-26T13:29:39.702Z,31.20
2019-04-26T13:32:09.454Z,31.90
2019-04-26T13:34:40.166Z,32.60
2019-04-26T13:37:09.945Z,33.30
2019-04-26T13:39:39.663Z,33.30
2019-04-26T13:42:09.891Z,33.10
2019-04-26T13:44:58.919Z,34.30
2019-04-26T13:47:32.705Z,34.90
2019-04-26T13:50:13.685Z,34.70
2019-04-26T13:52:43.385Z,35.00
2019-04-26T13:55:14.182Z,35.40
2019-04-26T13:57:44.479Z,35.50
2019-04-26T14:00:16.982Z,35.40
2019-04-26T14:02:46.738Z,35.50
2019-04-26T14:05:16.940Z,34.90
2019-04-26T14:07:46.754Z,35.70
2019-04-26T14:10:16.458Z,35.30
2019-04-26T14:12:49.547Z,35.60
2019-04-26T14:15:17.464Z,36.10
2019-04-26T14:17:47.222Z,35.90
2019-04-26T14:20:19.203Z,36.00
2019-04-26T14:22:52.835Z,36.50
2019-04-26T14:25:40.325Z,36.90
2019-04-26T14:28:09.994Z,37.60
2019-04-26T14:30:41.816Z,37.00
2019-04-26T14:33:11.029Z,37.50
2019-04-26T14:35:40.748Z,37.50
2019-04-26T14:38:10.463Z,37.30
2019-04-26T14:40:43.040Z,37.10
2019-04-26T14:43:11.823Z,36.50
2019-04-26T14:45:41.585Z,35.80
2019-04-26T14:48:20.722Z,36.50
2019-04-26T14:50:42.650Z,35.00
2019-04-26T14:53:12.839Z,35.80
2019-04-26T14:55:42.558Z,36.60
2019-04-26T14:58:12.363Z,36.80
2019-04-26T15:00:43.886Z,36.90
2019-04-26T15:03:20.860Z,37.90
2019-04-26T15:06:07.418Z,36.90
2019-04-26T15:08:40.474Z,37.40
2019-04-26T15:11:08.495Z,37.80
2019-04-26T15:13:40.411Z,37.90
2019-04-26T15:16:11.925Z,38.70
2019-04-26T15:18:42.632Z,38.90
2019-04-26T15:21:12.907Z,38.90
